Miami, Florida
Traffic Map
Current Weather Conditions
Miami, Florida
Broken Clouds
Broken Clouds
86°
Feels Like: 91°
Wind Chill: 86° Ceiling: 2900
Heat Index: 91° Visibility: 10mi
Dew Point: 71° Wind: 16mph
Humidity: 61% Direction: 110° (ESE)
Pressure: 30.05in Gusts: 0mph
Raw Report DataKMIA 282024Z 11014KT 10SM BKN029 30/22 A3005 RMK AO2 T03000217
Traffic Incident Summary
Active as of:
Severity:
Category:
InformationThere was an issue retrieving the traffic information for this location. Please try a different location or try again shortly.
Advertisements
Track Severe Weather on mobile